sensor_id;sensor_type;location;lat;lon;timestamp;pressure;altitude;pressure_sealevel;temperature;humidity
78843;BME280;70542;53.774;-0.352;2024-03-08T00:02:54;101940;;;4.994;57
78843;BME280;70542;53.774;-0.352;2024-03-08T00:09:07;101930;;;5.646;57
78843;BME280;70542;53.774;-0.352;2024-03-08T00:15:16;101920;;;5.983;55
78843;BME280;70542;53.774;-0.352;2024-03-08T00:21:26;101920;;;6.099;55
78843;BME280;70542;53.774;-0.352;2024-03-08T00:27:30;101920;;;6.656;53
78843;BME280;70542;53.774;-0.352;2024-03-08T00:33:27;101910;;;6.004;55
78843;BME280;70542;53.774;-0.352;2024-03-08T00:39:36;101910;;;6.504;53
78843;BME280;70542;53.774;-0.352;2024-03-08T00:45:49;101910;;;6.02;54
78843;BME280;70542;53.774;-0.352;2024-03-08T00:51:50;101900;;;6.068;55
78843;BME280;70542;53.774;-0.352;2024-03-08T00:58:04;101900;;;6.07;55
78843;BME280;70542;53.774;-0.352;2024-03-08T01:04:00;101880;;;6.956;54
78843;BME280;70542;53.774;-0.352;2024-03-08T01:10:13;101870;;;6.805;52
78843;BME280;70542;53.774;-0.352;2024-03-08T01:16:14;101870;;;6.781;53
78843;BME280;70542;53.774;-0.352;2024-03-08T01:22:22;101860;;;6.393;52
78843;BME280;70542;53.774;-0.352;2024-03-08T01:28:18;101850;;;5.767;54
78843;BME280;70542;53.774;-0.352;2024-03-08T01:34:14;101840;;;6.238;52
78843;BME280;70542;53.774;-0.352;2024-03-08T01:40:29;101830;;;6.698;51
78843;BME280;70542;53.774;-0.352;2024-03-08T01:46:38;101830;;;6.596;51
78843;BME280;70542;53.774;-0.352;2024-03-08T01:52:57;101820;;;6.382;51
78843;BME280;70542;53.774;-0.352;2024-03-08T01:59:07;101810;;;7.41;50
78843;BME280;70542;53.774;-0.352;2024-03-08T02:05:05;101800;;;7.517;50
78843;BME280;70542;53.774;-0.352;2024-03-08T02:11:14;101790;;;7.552;48
78843;BME280;70542;53.774;-0.352;2024-03-08T02:17:10;101780;;;7.381;49
78843;BME280;70542;53.774;-0.352;2024-03-08T02:23:19;101770;;;7.381;48
78843;BME280;70542;53.774;-0.352;2024-03-08T02:29:15;101760;;;6.488;51
78843;BME280;70542;53.774;-0.352;2024-03-08T02:35:11;101750;;;5.307;55
78843;BME280;70542;53.774;-0.352;2024-03-08T02:41:07;101740;;;6.126;54
78843;BME280;70542;53.774;-0.352;2024-03-08T02:47:07;101740;;;6.479;53
78843;BME280;70542;53.774;-0.352;2024-03-08T02:53:15;101730;;;7.126;51
78843;BME280;70542;53.774;-0.352;2024-03-08T02:59:23;101720;;;7.062;52
78843;BME280;70542;53.774;-0.352;2024-03-08T03:05:18;101720;;;6.195;53
78843;BME280;70542;53.774;-0.352;2024-03-08T03:11:15;101710;;;5.52;55
78843;BME280;70542;53.774;-0.352;2024-03-08T03:17:10;101700;;;6.199;55
78843;BME280;70542;53.774;-0.352;2024-03-08T03:23:06;101700;;;6.66;53
78843;BME280;70542;53.774;-0.352;2024-03-08T03:29:14;101700;;;6.174;54
78843;BME280;70542;53.774;-0.352;2024-03-08T03:34:53;101690;;;6.1;56
78843;BME280;70542;53.774;-0.352;2024-03-08T03:41:03;101680;;;5.39;57
78843;BME280;70542;53.774;-0.352;2024-03-08T03:47:11;101670;;;5.362;57
78843;BME280;70542;53.774;-0.352;2024-03-08T03:53:20;101660;;;5.928;55
78843;BME280;70542;53.774;-0.352;2024-03-08T03:59:28;101660;;;6.641;53
78843;BME280;70542;53.774;-0.352;2024-03-08T04:05:25;101660;;;6.324;54
78843;BME280;70542;53.774;-0.352;2024-03-08T04:11:04;101650;;;5.781;54
78843;BME280;70542;53.774;-0.352;2024-03-08T04:17:13;101640;;;5.899;53
78843;BME280;70542;53.774;-0.352;2024-03-08T04:23:21;101640;;;6.211;53
78843;BME280;70542;53.774;-0.352;2024-03-08T04:29:17;101630;;;5.675;52
78843;BME280;70542;53.774;-0.352;2024-03-08T04:35:13;101630;;;5.945;53
78843;BME280;70542;53.774;-0.352;2024-03-08T04:41:21;101620;;;5.771;53
78843;BME280;70542;53.774;-0.352;2024-03-08T04:47:29;101610;;;6.284;51
78843;BME280;70542;53.774;-0.352;2024-03-08T04:53:37;101610;;;5.893;53
78843;BME280;70542;53.774;-0.352;2024-03-08T04:59:33;101610;;;6.143;54
78843;BME280;70542;53.774;-0.352;2024-03-08T05:05:29;101600;;;6.893;52
78843;BME280;70542;53.774;-0.352;2024-03-08T05:11:38;101610;;;6.008;54
78843;BME280;70542;53.774;-0.352;2024-03-08T05:17:34;101600;;;6.075;53
78843;BME280;70542;53.774;-0.352;2024-03-08T05:23:43;101600;;;6.772;52
78843;BME280;70542;53.774;-0.352;2024-03-08T05:29:39;101590;;;6.236;52
78843;BME280;70542;53.774;-0.352;2024-03-08T05:35:35;101590;;;6.099;52
78843;BME280;70542;53.774;-0.352;2024-03-08T05:41:43;101590;;;6.647;52
78843;BME280;70542;53.774;-0.352;2024-03-08T05:47:40;101580;;;6.823;52
78843;BME280;70542;53.774;-0.352;2024-03-08T05:53:47;101570;;;6.221;53
78843;BME280;70542;53.774;-0.352;2024-03-08T05:59:43;101570;;;6.785;51
78843;BME280;70542;53.774;-0.352;2024-03-08T06:05:51;101560;;;6.582;52
78843;BME280;70542;53.774;-0.352;2024-03-08T06:11:48;101560;;;6.707;51
78843;BME280;70542;53.774;-0.352;2024-03-08T06:17:45;101560;;;7.111;51
78843;BME280;70542;53.774;-0.352;2024-03-08T06:23:41;101560;;;6.473;51
78843;BME280;70542;53.774;-0.352;2024-03-08T06:29:49;101550;;;6.079;52
78843;BME280;70542;53.774;-0.352;2024-03-08T06:36:04;101540;;;5.262;53
78843;BME280;70542;53.774;-0.352;2024-03-08T06:42:01;101540;;;5.43;54
78843;BME280;70542;53.774;-0.352;2024-03-08T06:47:57;101540;;;5.322;54
78843;BME280;70542;53.774;-0.352;2024-03-08T06:53:53;101540;;;5.5;53
78843;BME280;70542;53.774;-0.352;2024-03-08T07:00:04;101550;;;5.599;54
78843;BME280;70542;53.774;-0.352;2024-03-08T07:06:25;101550;;;4.753;55
78843;BME280;70542;53.774;-0.352;2024-03-08T07:12:22;101540;;;5.141;55
78843;BME280;70542;53.774;-0.352;2024-03-08T07:18:30;101540;;;4.951;54
78843;BME280;70542;53.774;-0.352;2024-03-08T07:24:26;101540;;;5.473;54
78843;BME280;70542;53.774;-0.352;2024-03-08T07:30:34;101540;;;5.124;54
78843;BME280;70542;53.774;-0.352;2024-03-08T07:36:42;101530;;;5.399;54
78843;BME280;70542;53.774;-0.352;2024-03-08T07:42:39;101520;;;5.37;54
78843;BME280;70542;53.774;-0.352;2024-03-08T07:48:41;101520;;;5.559;53
78843;BME280;70542;53.774;-0.352;2024-03-08T07:54:59;101520;;;5.048;55
78843;BME280;70542;53.774;-0.352;2024-03-08T08:00:55;101520;;;5.178;55
78843;BME280;70542;53.774;-0.352;2024-03-08T08:07:04;101510;;;5.857;53
78843;BME280;70542;53.774;-0.352;2024-03-08T08:13:14;101510;;;5.94;52
78843;BME280;70542;53.774;-0.352;2024-03-08T08:19:10;101500;;;6.089;53
78843;BME280;70542;53.774;-0.352;2024-03-08T08:25:18;101500;;;5.826;54
78843;BME280;70542;53.774;-0.352;2024-03-08T08:31:25;101490;;;5.232;55
78843;BME280;70542;53.774;-0.352;2024-03-08T08:37:21;101480;;;5.688;54
78843;BME280;70542;53.774;-0.352;2024-03-08T08:43:18;101480;;;5.081;56
78843;BME280;70542;53.774;-0.352;2024-03-08T08:49:26;101470;;;5.158;55
78843;BME280;70542;53.774;-0.352;2024-03-08T08:55:35;101460;;;5.173;55
78843;BME280;70542;53.774;-0.352;2024-03-08T09:01:31;101460;;;4.639;56
78843;BME280;70542;53.774;-0.352;2024-03-08T09:07:40;101450;;;4.894;54
78843;BME280;70542;53.774;-0.352;2024-03-08T09:13:37;101450;;;4.692;53
78843;BME280;70542;53.774;-0.352;2024-03-08T09:20:45;101450;;;4.709;52
78843;BME280;70542;53.774;-0.352;2024-03-08T09:26:53;101440;;;5.437;50
78843;BME280;70542;53.774;-0.352;2024-03-08T09:33:00;101440;;;5.378;48
78843;BME280;70542;53.774;-0.352;2024-03-08T09:38:57;101420;;;6.322;45
78843;BME280;70542;53.774;-0.352;2024-03-08T09:44:57;101410;;;6.75;45
78843;BME280;70542;53.774;-0.352;2024-03-08T09:51:05;101400;;;5.721;45
78843;BME280;70542;53.774;-0.352;2024-03-08T09:57:04;101390;;;6.184;45
78843;BME280;70542;53.774;-0.352;2024-03-08T10:03:01;101380;;;5.8;47
78843;BME280;70542;53.774;-0.352;2024-03-08T10:09:10;101380;;;5.143;46
78843;BME280;70542;53.774;-0.352;2024-03-08T10:15:16;101360;;;5.53;45
78843;BME280;70542;53.774;-0.352;2024-03-08T10:21:24;101360;;;4.9;47
78843;BME280;70542;53.774;-0.352;2024-03-08T10:27:20;101360;;;5.482;47
78843;BME280;70542;53.774;-0.352;2024-03-08T10:33:16;101350;;;6.474;45
78843;BME280;70542;53.774;-0.352;2024-03-08T10:39:21;101350;;;5.69;46
78843;BME280;70542;53.774;-0.352;2024-03-08T10:45:31;101340;;;5.871;48
78843;BME280;70542;53.774;-0.352;2024-03-08T10:51:29;101340;;;5.387;47
78843;BME280;70542;53.774;-0.352;2024-03-08T10:57:39;101330;;;6.446;45
78843;BME280;70542;53.774;-0.352;2024-03-08T11:03:45;101330;;;6.981;43
78843;BME280;70542;53.774;-0.352;2024-03-08T11:09:41;101320;;;5.624;45
78843;BME280;70542;53.774;-0.352;2024-03-08T11:15:39;101310;;;5.275;46
78843;BME280;70542;53.774;-0.352;2024-03-08T11:21:35;101310;;;5.549;46
78843;BME280;70542;53.774;-0.352;2024-03-08T11:27:32;101300;;;6.329;46
78843;BME280;70542;53.774;-0.352;2024-03-08T11:33:47;101300;;;6.493;46
78843;BME280;70542;53.774;-0.352;2024-03-08T11:39:27;101300;;;6.328;48
78843;BME280;70542;53.774;-0.352;2024-03-08T11:45:35;101290;;;7.231;46
78843;BME280;70542;53.774;-0.352;2024-03-08T11:51:32;101290;;;6.7;46
78843;BME280;70542;53.774;-0.352;2024-03-08T11:57:41;101280;;;7.185;47
78843;BME280;70542;53.774;-0.352;2024-03-08T12:03:37;101260;;;6.471;47
78843;BME280;70542;53.774;-0.352;2024-03-08T12:15:51;101260;;;6.612;47
78843;BME280;70542;53.774;-0.352;2024-03-08T12:22:07;101250;;;6.248;49
78843;BME280;70542;53.774;-0.352;2024-03-08T12:28:09;101250;;;6.392;50
78843;BME280;70542;53.774;-0.352;2024-03-08T12:34:17;101240;;;7.105;47
78843;BME280;70542;53.774;-0.352;2024-03-08T12:40:27;101220;;;7.044;49
78843;BME280;70542;53.774;-0.352;2024-03-08T12:46:23;101200;;;7.286;48
78843;BME280;70542;53.774;-0.352;2024-03-08T12:52:33;101210;;;6.33;50
78843;BME280;70542;53.774;-0.352;2024-03-08T12:58:42;101200;;;6.342;51
78843;BME280;70542;53.774;-0.352;2024-03-08T13:04:54;101190;;;6.449;51
78843;BME280;70542;53.774;-0.352;2024-03-08T13:10:50;101170;;;7.984;48
78843;BME280;70542;53.774;-0.352;2024-03-08T13:17:10;101170;;;8.388;47
78843;BME280;70542;53.774;-0.352;2024-03-08T13:24:07;101160;;;6.69;51
78843;BME280;70542;53.774;-0.352;2024-03-08T13:30:04;101160;;;6.798;50
78843;BME280;70542;53.774;-0.352;2024-03-08T13:35:44;101160;;;6.045;52
78843;BME280;70542;53.774;-0.352;2024-03-08T13:41:51;101150;;;7.011;51
78843;BME280;70542;53.774;-0.352;2024-03-08T13:47:47;101140;;;6.241;52
78843;BME280;70542;53.774;-0.352;2024-03-08T13:53:40;101130;;;5.809;53
78843;BME280;70542;53.774;-0.352;2024-03-08T13:59:47;101130;;;5.458;53
78843;BME280;70542;53.774;-0.352;2024-03-08T14:05:44;101120;;;6.506;50
78843;BME280;70542;53.774;-0.352;2024-03-08T14:12:29;101120;;;5.686;52
78843;BME280;70542;53.774;-0.352;2024-03-08T14:18:40;101110;;;5.245;53
78843;BME280;70542;53.774;-0.352;2024-03-08T14:25:37;101100;;;5.289;53
78843;BME280;70542;53.774;-0.352;2024-03-08T14:31:16;101090;;;5.796;53
78843;BME280;70542;53.774;-0.352;2024-03-08T14:37:12;101090;;;5.433;52
78843;BME280;70542;53.774;-0.352;2024-03-08T14:43:21;101080;;;5.128;52
78843;BME280;70542;53.774;-0.352;2024-03-08T14:49:17;101070;;;5.581;52
78843;BME280;70542;53.774;-0.352;2024-03-08T14:55:34;101060;;;4.755;53
78843;BME280;70542;53.774;-0.352;2024-03-08T15:01:44;101040;;;4.791;55
78843;BME280;70542;53.774;-0.352;2024-03-08T15:07:43;101040;;;4.883;53
78843;BME280;70542;53.774;-0.352;2024-03-08T15:13:39;101040;;;4.619;53
78843;BME280;70542;53.774;-0.352;2024-03-08T15:19:18;101020;;;5.004;53
78843;BME280;70542;53.774;-0.352;2024-03-08T15:25:15;101020;;;4.862;51
78843;BME280;70542;53.774;-0.352;2024-03-08T15:31:25;101010;;;5.275;52
78843;BME280;70542;53.774;-0.352;2024-03-08T15:37:22;101000;;;3.922;54
78843;BME280;70542;53.774;-0.352;2024-03-08T15:43:18;101000;;;4.649;54
78843;BME280;70542;53.774;-0.352;2024-03-08T15:49:14;100990;;;4.889;52
78843;BME280;70542;53.774;-0.352;2024-03-08T15:55:14;100980;;;4.825;53
78843;BME280;70542;53.774;-0.352;2024-03-08T16:01:15;100980;;;4.713;51
78843;BME280;70542;53.774;-0.352;2024-03-08T16:07:11;100970;;;5.09;52
78843;BME280;70542;53.774;-0.352;2024-03-08T16:13:08;100950;;;4.607;52
78843;BME280;70542;53.774;-0.352;2024-03-08T16:19:04;100940;;;5.173;52
78843;BME280;70542;53.774;-0.352;2024-03-08T16:25:12;100940;;;4.632;53
78843;BME280;70542;53.774;-0.352;2024-03-08T16:31:14;100930;;;4.547;54
78843;BME280;70542;53.774;-0.352;2024-03-08T16:37:10;100930;;;4.119;54
78843;BME280;70542;53.774;-0.352;2024-03-08T16:43:06;100940;;;4.731;54
78843;BME280;70542;53.774;-0.352;2024-03-08T16:49:04;100940;;;4.796;53
78843;BME280;70542;53.774;-0.352;2024-03-08T16:56:13;100930;;;4.493;52
78843;BME280;70542;53.774;-0.352;2024-03-08T17:02:10;100920;;;4.269;54
78843;BME280;70542;53.774;-0.352;2024-03-08T17:08:06;100910;;;3.848;55
78843;BME280;70542;53.774;-0.352;2024-03-08T17:14:15;100910;;;4.296;54
78843;BME280;70542;53.774;-0.352;2024-03-08T17:20:13;100900;;;4.468;54
78843;BME280;70542;53.774;-0.352;2024-03-08T17:26:09;100910;;;4.163;56
78843;BME280;70542;53.774;-0.352;2024-03-08T17:32:32;100920;;;3.75;56
78843;BME280;70542;53.774;-0.352;2024-03-08T17:38:28;100900;;;3.864;56
78843;BME280;70542;53.774;-0.352;2024-03-08T17:44:08;100910;;;3.964;56
78843;BME280;70542;53.774;-0.352;2024-03-08T17:50:17;100910;;;4.076;55
78843;BME280;70542;53.774;-0.352;2024-03-08T17:56:27;100900;;;3.924;56
78843;BME280;70542;53.774;-0.352;2024-03-08T18:02:25;100910;;;4.385;55
78843;BME280;70542;53.774;-0.352;2024-03-08T18:16:40;100900;;;3.974;57
78843;BME280;70542;53.774;-0.352;2024-03-08T18:23:12;100900;;;3.598;58
78843;BME280;70542;53.774;-0.352;2024-03-08T18:29:46;100890;;;3.994;55
78843;BME280;70542;53.774;-0.352;2024-03-08T18:36:07;100890;;;3.334;58
78843;BME280;70542;53.774;-0.352;2024-03-08T18:42:20;100880;;;4.146;56
78843;BME280;70542;53.774;-0.352;2024-03-08T18:48:45;100890;;;3.882;57
78843;BME280;70542;53.774;-0.352;2024-03-08T18:55:13;100890;;;4.078;56
78843;BME280;70542;53.774;-0.352;2024-03-08T19:01:25;100890;;;4.071;57
78843;BME280;70542;53.774;-0.352;2024-03-08T19:07:23;100880;;;4.453;56
78843;BME280;70542;53.774;-0.352;2024-03-08T19:13:21;100880;;;4.164;58
78843;BME280;70542;53.774;-0.352;2024-03-08T19:19:18;100880;;;4.094;58
78843;BME280;70542;53.774;-0.352;2024-03-08T19:25:27;100870;;;4.447;58
78843;BME280;70542;53.774;-0.352;2024-03-08T19:31:35;100870;;;4.562;57
78843;BME280;70542;53.774;-0.352;2024-03-08T19:37:32;100860;;;5.011;56
78843;BME280;70542;53.774;-0.352;2024-03-08T19:43:28;100860;;;5.07;56
78843;BME280;70542;53.774;-0.352;2024-03-08T19:49:41;100840;;;4.879;56
78843;BME280;70542;53.774;-0.352;2024-03-08T19:57:23;100830;;;5.186;56
78843;BME280;70542;53.774;-0.352;2024-03-08T20:03:30;100820;;;4.993;55
78843;BME280;70542;53.774;-0.352;2024-03-08T20:10:02;100820;;;4.902;56
78843;BME280;70542;53.774;-0.352;2024-03-08T20:16:14;100820;;;5.329;55
78843;BME280;70542;53.774;-0.352;2024-03-08T20:21:54;100820;;;5.11;56
78843;BME280;70542;53.774;-0.352;2024-03-08T20:27:53;100820;;;5.528;54
78843;BME280;70542;53.774;-0.352;2024-03-08T20:34:00;100810;;;5.399;56
78843;BME280;70542;53.774;-0.352;2024-03-08T20:40:21;100800;;;5.469;55
78843;BME280;70542;53.774;-0.352;2024-03-08T20:46:29;100800;;;5.681;55
78843;BME280;70542;53.774;-0.352;2024-03-08T20:52:51;100800;;;4.738;57
78843;BME280;70542;53.774;-0.352;2024-03-08T20:58:47;100790;;;5.867;55
78843;BME280;70542;53.774;-0.352;2024-03-08T21:04:55;100780;;;5.499;55
78843;BME280;70542;53.774;-0.352;2024-03-08T21:10:35;100780;;;4.377;58
78843;BME280;70542;53.774;-0.352;2024-03-08T21:16:31;100760;;;5.563;56
78843;BME280;70542;53.774;-0.352;2024-03-08T21:22:11;100750;;;5.408;56
78843;BME280;70542;53.774;-0.352;2024-03-08T21:27:53;100740;;;5.065;58
78843;BME280;70542;53.774;-0.352;2024-03-08T21:34:01;100740;;;4.178;60
78843;BME280;70542;53.774;-0.352;2024-03-08T21:40:08;100720;;;5.205;57
78843;BME280;70542;53.774;-0.352;2024-03-08T21:46:17;100720;;;5.256;58
78843;BME280;70542;53.774;-0.352;2024-03-08T21:52:25;100710;;;4.868;58
78843;BME280;70542;53.774;-0.352;2024-03-08T21:58:21;100700;;;5.115;58
78843;BME280;70542;53.774;-0.352;2024-03-08T22:04:29;100690;;;4.73;60
78843;BME280;70542;53.774;-0.352;2024-03-08T22:10:27;100690;;;4.92;59
78843;BME280;70542;53.774;-0.352;2024-03-08T22:16:53;100680;;;4.618;58
78843;BME280;70542;53.774;-0.352;2024-03-08T22:22:51;100670;;;4.334;60
78843;BME280;70542;53.774;-0.352;2024-03-08T22:28:52;100670;;;4.811;59
78843;BME280;70542;53.774;-0.352;2024-03-08T22:34:52;100660;;;4.511;60
78843;BME280;70542;53.774;-0.352;2024-03-08T22:40:49;100660;;;5.04;58
78843;BME280;70542;53.774;-0.352;2024-03-08T22:46:58;100650;;;4.886;59
78843;BME280;70542;53.774;-0.352;2024-03-08T22:52:54;100650;;;4.454;60
78843;BME280;70542;53.774;-0.352;2024-03-08T22:58:50;100640;;;5.045;58
78843;BME280;70542;53.774;-0.352;2024-03-08T23:05:06;100640;;;4.262;60
78843;BME280;70542;53.774;-0.352;2024-03-08T23:11:08;100630;;;4.704;60
78843;BME280;70542;53.774;-0.352;2024-03-08T23:17:28;100620;;;4.84;60
78843;BME280;70542;53.774;-0.352;2024-03-08T23:23:36;100610;;;4.101;61
78843;BME280;70542;53.774;-0.352;2024-03-08T23:29:49;100600;;;4.569;59
78843;BME280;70542;53.774;-0.352;2024-03-08T23:36:15;100590;;;4.897;59
78843;BME280;70542;53.774;-0.352;2024-03-08T23:42:12;100580;;;5.055;58
78843;BME280;70542;53.774;-0.352;2024-03-08T23:48:21;100580;;;5.047;59
78843;BME280;70542;53.774;-0.352;2024-03-08T23:54:33;100570;;;4.669;59
